地図

経路データ

SID SEASON NUMBER BASIN SUBBASIN NAME ISO_TIME NATURE LAT LON WMO_WIND WMO_PRES WMO_AGENCY TRACK_TYPE DIST2LAND LANDFALL IFLAG USA_AGENCY USA_ATCF_ID USA_LAT USA_LON USA_RECORD USA_STATUS USA_WIND USA_PRES USA_SSHS USA_R34_NE USA_R34_SE USA_R34_SW USA_R34_NW USA_R50_NE USA_R50_SE USA_R50_SW USA_R50_NW USA_R64_NE USA_R64_SE USA_R64_SW USA_R64_NW USA_POCI USA_ROCI USA_RMW USA_EYE TOKYO_LAT TOKYO_LON TOKYO_GRADE TOKYO_WIND TOKYO_PRES TOKYO_R50_DIR TOKYO_R50_LONG TOKYO_R50_SHORT TOKYO_R30_DIR TOKYO_R30_LONG TOKYO_R30_SHORT TOKYO_LAND CMA_LAT CMA_LON CMA_CAT CMA_WIND CMA_PRES HKO_LAT HKO_LON HKO_CAT HKO_WIND HKO_PRES NEWDELHI_LAT NEWDELHI_LON NEWDELHI_GRADE NEWDELHI_WIND NEWDELHI_PRES NEWDELHI_CI NEWDELHI_DP NEWDELHI_POCI REUNION_LAT REUNION_LON REUNION_TYPE REUNION_WIND REUNION_PRES REUNION_TNUM REUNION_CI REUNION_RMW REUNION_R34_NE REUNION_R34_SE REUNION_R34_SW REUNION_R34_NW REUNION_R50_NE REUNION_R50_SE REUNION_R50_SW REUNION_R50_NW REUNION_R64_NE REUNION_R64_SE REUNION_R64_SW REUNION_R64_NW BOM_LAT BOM_LON BOM_TYPE BOM_WIND BOM_PRES BOM_TNUM BOM_CI BOM_RMW BOM_R34_NE BOM_R34_SE BOM_R34_SW BOM_R34_NW BOM_R50_NE BOM_R50_SE BOM_R50_SW BOM_R50_NW BOM_R64_NE BOM_R64_SE BOM_R64_SW BOM_R64_NW BOM_ROCI BOM_POCI BOM_EYE BOM_POS_METHOD BOM_PRES_METHOD NADI_LAT NADI_LON NADI_CAT NADI_WIND NADI_PRES WELLINGTON_LAT WELLINGTON_LON WELLINGTON_WIND WELLINGTON_PRES DS824_LAT DS824_LON DS824_STAGE DS824_WIND DS824_PRES TD9636_LAT TD9636_LON TD9636_STAGE TD9636_WIND TD9636_PRES TD9635_LAT TD9635_LON TD9635_WIND TD9635_PRES TD9635_ROCI NEUMANN_LAT NEUMANN_LON NEUMANN_CLASS NEUMANN_WIND NEUMANN_PRES MLC_LAT MLC_LON MLC_CLASS MLC_WIND MLC_PRES USA_GUST BOM_GUST BOM_GUST_PER REUNION_GUST REUNION_GUST_PER USA_SEAHGT USA_SEARAD_NE USA_SEARAD_SE USA_SEARAD_SW USA_SEARAD_NW STORM_SPEED STORM_DIR
1984032S15160 1984 8 SP EA BETI 1984-02-01 00:00:00 TS -15.0667 159.700 main 532 523 O_______O___O_ jtwc_sh SH171984 -15.1000 159.600 25 -1 -15.0000 159.900 30 997 -15.1000 159.600 TC 25 4 102
1984032S15160 1984 8 SP EA BETI 1984-02-01 03:00:00 TS -15.1124 159.915 main 523 515 P_______P___P_ SH171984 -15.0950 159.848 25 -1 -15.1470 160.050 30 997 -15.0950 159.848 TC 25 4 103
1984032S15160 1984 8 SP MM BETI 1984-02-01 06:00:00 TS -15.1650 160.133 main 526 518 O_______P___O_ jtwc_sh SH171984 -15.1000 160.100 25 -1 -15.2951 160.200 30 997 -15.1000 160.100 TC 25 4 106
1984032S15160 1984 8 SP MM BETI 1984-02-01 09:00:00 TS -15.2336 160.355 main 515 515 P_______P___P_ SH171984 -15.1275 160.358 27 -1 -15.4457 160.350 30 997 -15.1275 160.358 TC 27 5 112
1984032S15160 1984 8 SP MM BETI 1984-02-01 12:00:00 TS -15.3333 160.567 30 997 wellington main 520 520 O_______O___O_ jtwc_sh SH171984 -15.2000 160.600 30 -1 -15.6000 160.500 30 997 -15.2000 160.600 TC 30 5 122
1984032S15160 1984 8 SP MM BETI 1984-02-01 15:00:00 TS -15.4715 160.756 main 537 537 P_______P___P_ SH171984 -15.3275 160.808 30 -1 -15.7596 160.652 31 996 -15.3275 160.808 TC 30 5 131
1984032S15160 1984 8 SP MM BETI 1984-02-01 18:00:00 TS -15.6424 160.938 main 546 546 O_______P___O_ jtwc_sh SH171984 -15.5000 161.000 30 -1 -15.9273 160.813 32 996 -15.5000 161.000 TC 30 5 134
1984032S15160 1984 8 SP MM BETI 1984-02-01 21:00:00 TS -15.8204 161.126 main 564 555 P_______P___P_ SH171984 -15.6775 161.193 32 -1 -16.1064 160.992 33 995 -15.6775 161.193 TC 32 6 136
1984032S15160 1984 8 SP MM BETI 1984-02-02 00:00:00 TS -16.0615 161.354 35 995 wellington main 540 509 O_______O_O_O_ jtwc_sh SH171984 -15.9000 161.400 35 0 -16.3000 161.200 35 995 -16.4000 161.600 1 -15.9000 161.400 TC 35 7 139
1984032S15160 1984 8 SP MM BETI 1984-02-02 03:00:00 TS -16.3296 161.591 main 509 470 P_______P_P_P_ SH171984 -16.1849 161.628 37 0 -16.5065 161.430 38 992 -16.5547 161.767 1 -16.1849 161.628 TC 37 7 139
1984032S15160 1984 8 SP MM BETI 1984-02-02 06:00:00 TS -16.6041 161.854 main 464 425 O_______P_P_O_ jtwc_sh SH171984 -16.5000 161.900 40 0 -16.7273 161.690 42 990 -16.7175 161.947 1 -16.5000 161.900 TC 40 8 135
1984032S15160 1984 8 SP MM BETI 1984-02-02 09:00:00 TS -16.8753 162.151 main 420 385 P_______P_P_P_ SH171984 -16.8225 162.235 42 0 -16.9595 161.980 46 987 -16.8965 162.154 1 -16.8225 162.235 TC 42 8 131
1984032S15160 1984 8 SP MM BETI 1984-02-02 12:00:00 TS -17.1250 162.475 50 985 wellington main 385 352 O_______O_O_O_ jtwc_sh SH171984 -17.1000 162.600 45 0 -17.2000 162.300 50 985 -17.1000 162.400 1 -17.1000 162.600 TC 45 8 126
1984032S15160 1984 8 SP MM BETI 1984-02-02 15:00:00 TS -17.3257 162.807 main 352 319 P_______P_P_P_ SH171984 -17.2649 162.943 47 0 -17.4388 162.646 53 981 -17.3340 162.695 1 -17.2649 162.943 TC 47 8 121
1984032S15160 1984 8 SP MM BETI 1984-02-02 18:00:00 TS -17.5206 163.163 main 316 286 O_______P_P_O_ jtwc_sh SH171984 -17.4000 163.300 50 0 -17.6850 163.020 57 977 -17.5974 163.033 1 -17.4000 163.300 TC 50 8 120
1984032S15160 1984 8 SP MM BETI 1984-02-02 21:00:00 TS -17.7452 163.557 main 284 247 P_______P_P_P_ SH171984 -17.5775 163.708 52 0 -17.9387 163.409 61 973 -17.8871 163.404 1 -17.5775 163.708 TC 52 9 123
1984032S15160 1984 8 SP MM BETI 1984-02-03 00:00:00 TS -18.0000 163.950 65 970 wellington main 246 213 O_______O_O_O_ jtwc_sh SH171984 -17.8000 164.100 55 0 -18.2000 163.800 65 970 -18.2000 163.800 2 -17.8000 164.100 TC 55 9 128
1984032S15160 1984 8 SP MM BETI 1984-02-03 03:00:00 TS -18.2992 164.296 main 213 186 P_______P_P_P_ SH171984 -18.0923 164.408 57 0 -18.4674 164.163 65 970 -18.5447 164.207 2 -18.0923 164.408 TC 57 9 133
1984032S15160 1984 8 SP MM BETI 1984-02-03 06:00:00 TS -18.6124 164.641 main 186 162 O_______P_P_O_ jtwc_sh SH171984 -18.4000 164.700 60 0 -18.7419 164.528 65 970 -18.9075 164.635 2 -18.4000 164.700 TC 60 9 132
1984032S15160 1984 8 SP MM BETI 1984-02-03 09:00:00 TS -18.9042 165.011 main 165 152 P_______P_P_P_ SH171984 -18.6649 165.035 60 0 -19.0205 164.904 65 970 -19.2665 165.070 2 -18.6649 165.035 TC 60 9 128
1984032S15160 1984 8 SP MM BETI 1984-02-03 12:00:00 TS -19.1750 165.400 65 970 wellington main 154 153 O_______O_O_O_ jtwc_sh SH171984 -18.9000 165.400 60 0 -19.3000 165.300 65 970 -19.6000 165.500 2 -18.9000 165.400 TC 60 9 125
1984032S15160 1984 8 SP MM BETI 1984-02-03 15:00:00 TS -19.4211 165.800 main 168 158 P_______P_P_P_ SH171984 -19.1074 165.778 62 0 -19.5873 165.741 63 971 -19.8824 165.904 2 -19.1074 165.778 TC 62 9 122
1984032S15160 1984 8 SP MM BETI 1984-02-03 18:00:00 TS -19.6524 166.225 main 161 161 O_______P_P_O_ jtwc_sh SH171984 -19.3000 166.200 65 1 -19.8727 166.200 62 972 -20.1369 166.301 2 -19.3000 166.200 TC 65 9 119
1984032S15160 1984 8 SP MM BETI 1984-02-03 21:00:00 TS -19.8836 166.678 main 182 182 P_______P_P_P_ SH171984 -19.5074 166.678 65 1 -20.1467 166.659 61 973 -20.3730 166.698 2 -19.5074 166.678 TC 65 10 117
1984032S15160 1984 8 SP MM BETI 1984-02-04 00:00:00 TS -20.1000 167.150 60 975 wellington main 193 187 O_______O_O_O_ jtwc_sh SH171984 -19.7000 167.200 65 1 -20.4000 167.100 60 975 -20.6000 167.100 2 -19.7000 167.200 TC 65 976 10 115
1984032S15160 1984 8 SP MM BETI 1984-02-04 03:00:00 TS -20.2981 167.629 main 200 200 P_______P_P_P_ SH171984 -19.8574 167.743 62 0 -20.6331 167.489 57 977 -20.8445 167.542 2 -19.8574 167.743 TC 62 10 113
1984032S15160 1984 8 SP MM BETI 1984-02-04 06:00:00 TS -20.4811 168.111 main 217 217 O_______P_P_O_ jtwc_sh SH171984 -20.0000 168.300 60 0 -20.8441 167.858 55 980 -21.0803 167.987 2 -20.0000 168.300 TC 60 10 112
1984032S15160 1984 8 SP MM BETI 1984-02-04 09:00:00 TS -20.6546 168.581 main 235 235 P_______P_P_P_ SH171984 -20.1423 168.843 57 0 -21.0331 168.223 52 982 -21.3008 168.414 2 -20.1423 168.843 TC 57 9 111
1984032S15160 1984 8 SP MM BETI 1984-02-04 12:00:00 TS -20.8250 169.050 50 985 wellington main 267 259 O_______O_O_O_ jtwc_sh SH171984 -20.3000 169.400 55 0 -21.2000 168.600 50 985 -21.5000 168.800 2 -20.3000 169.400 TC 55 9 111
1984032S15160 1984 8 SP MM BETI 1984-02-04 15:00:00 TS -21.0004 169.522 main 291 291 P_______P_P_P_ SH171984 -20.4924 169.993 52 0 -21.3461 168.995 47 986 -21.6708 169.107 2 -20.4924 169.993 TC 52 9 112
1984032S15160 1984 8 SP MM BETI 1984-02-04 18:00:00 TS -21.1733 169.995 main 329 329 O_______P_P_O_ jtwc_sh SH171984 -20.7000 170.600 50 0 -21.4718 169.406 45 987 -21.8215 169.373 2 -20.7000 170.600 TC 50 9 110
1984032S15160 1984 8 SP MM BETI 1984-02-04 21:00:00 TS -21.3257 170.467 main 375 372 P_______P_P_P_ SH171984 -20.8773 171.200 47 0 -21.5866 169.839 42 988 -21.9615 169.628 2 -20.8773 171.200 TC 47 9 110
1984032S15160 1984 8 SP MM BETI 1984-02-05 00:00:00 TS -21.5000 170.950 40 990 wellington main 420 420 O_______O_O_O_ jtwc_sh SH171984 -21.1000 171.800 45 0 -21.7000 170.300 40 990 -22.1000 169.900 2 -21.1000 171.800 TC 45 10 113
1984032S15160 1984 8 SP MM BETI 1984-02-05 03:00:00 TS -21.7160 171.453 main 467 465 P_______P_P_P_ SH171984 -21.3972 172.393 42 0 -21.8194 170.794 37 991 -22.2500 170.233 2 -21.3972 172.393 TC 42 10 121
1984032S15160 1984 8 SP MM BETI 1984-02-05 06:00:00 TS -22.0179 171.868 main 505 504 O_______P_P_O_ jtwc_sh SH171984 -21.8000 173.000 40 0 -21.9442 171.314 35 993 -22.4001 170.585 2 -21.8000 173.000 TC 40 10 133
1984032S15160 1984 8 SP MM BETI 1984-02-05 09:00:00 TS -22.3616 172.204 main 534 534 P_______P_P_P_ SH171984 -22.3181 173.639 37 0 -22.0719 171.852 32 995 -22.5500 170.945 2 -22.3181 173.639 TC 37 8 148
1984032S15160 1984 8 SP MM BETI 1984-02-05 12:00:00 TS -22.6857 172.314 30 997 wellington main 546 475 O_______O_O_O_ jtwc_sh SH171984 -22.9000 174.300 35 0 -22.2000 172.400 30 997 -22.7000 171.300 1 -22.9000 174.300 TC 35 7 228
1984032S15160 1984 8 SP MM BETI 1984-02-05 15:00:00 NR -22.8456 171.628 main 475 475 __________P___ SH171984 -1 -22.8456 171.628 1 TC 5 228
1984032S15160 1984 8 SP MM BETI 1984-02-05 18:00:00 NR -22.9920 171.951 main 518 518 __________P___ -1 -22.9920 171.951 1 7 117
1984032S15160 1984 8 SP MM BETI 1984-02-05 21:00:00 NR -23.1425 172.272 main 550 550 __________P___ -1 -23.1425 172.272 1 7 117
1984032S15160 1984 8 SP MM BETI 1984-02-06 00:00:00 NR -23.3000 172.600 main 584 584 __________O___ -1 -23.3000 172.600 1 7 118
1984032S15160 1984 8 SP MM BETI 1984-02-06 03:00:00 NR -23.4667 172.939 main 618 618 __________P___ -1 -23.4667 172.939 1 7 118
1984032S15160 1984 8 SP MM BETI 1984-02-06 06:00:00 NR -23.6408 173.287 main 660 660 __________P___ -1 -23.6408 173.287 1 7 119
1984032S15160 1984 8 SP MM BETI 1984-02-06 09:00:00 NR -23.8195 173.641 main 695 695 __________P___ -1 -23.8195 173.641 1 7 119
1984032S15160 1984 8 SP MM BETI 1984-02-06 12:00:00 NR -24.0000 174.000 main 740 __________O___ -1 -24.0000 174.000 1 7 119

デジタル台風データ・検索

IBTrACS Databaseについて

本データベースは、米国NOAAが公開する1842年以降の世界の熱帯低気圧のベストトラックデータアーカイブInternational Best Track Archive for Climate Stewardship (IBTrACS)を、ウェブで閲覧しやすい形式に変換したものです。

最終更新日:2021-12-01